North Manheim, Pennsylvania
Current Conditions -  °F | °C
As of 11:58 PM on Saturday 25 Oct 2014 (Local Time) from KMUI Reporting Station
Overcast Overcast  
Wind Chill: 18°   Ceiling: 8000
Heat Index: 18°   Visibility: 10mi
Dew Point:   Wind: 18mph
Humidity: 50%   Direction: 290°WNW
Pressure: 29.64"   Gusts: 24mph
Location:  40.6882°N, 76.264°W
Report Text: KMUI 260358Z AUTO 29016G21KT 10SM FEW060 OVC080 18/08 A2964 RMK AO2 RAE0311DZB0311E0316 SLP038 P0000 T01810075 $
Loading
Personal Weather Stations






























Interactive Weather Map
Tropical Storm Tracking
New forecast layout! Learn more

10-Day Weather Forecast

Advertisements
Track Severe Weather on mobile